sensor_id;sensor_type;location;lat;lon;timestamp;temperature;humidity
20094;DHT22;10206;48.012;10.030;2022-10-22T00:00:55;13.20;99.90
20094;DHT22;10206;48.012;10.030;2022-10-22T00:03:21;13.20;99.90
20094;DHT22;10206;48.012;10.030;2022-10-22T00:05:47;13.30;99.90
20094;DHT22;10206;48.012;10.030;2022-10-22T00:08:13;13.40;99.90
20094;DHT22;10206;48.012;10.030;2022-10-22T00:10:40;13.40;99.90
20094;DHT22;10206;48.012;10.030;2022-10-22T00:13:06;13.10;99.90
20094;DHT22;10206;48.012;10.030;2022-10-22T00:15:32;13.00;99.90
20094;DHT22;10206;48.012;10.030;2022-10-22T00:17:57;12.90;99.90
20094;DHT22;10206;48.012;10.030;2022-10-22T00:20:23;12.70;99.90
20094;DHT22;10206;48.012;10.030;2022-10-22T00:22:49;12.60;99.90
20094;DHT22;10206;48.012;10.030;2022-10-22T00:25:15;12.50;99.90
20094;DHT22;10206;48.012;10.030;2022-10-22T00:27:41;12.50;99.90
20094;DHT22;10206;48.012;10.030;2022-10-22T00:30:07;12.60;99.90
20094;DHT22;10206;48.012;10.030;2022-10-22T00:32:33;12.50;99.90
20094;DHT22;10206;48.012;10.030;2022-10-22T00:34:59;12.40;99.90
20094;DHT22;10206;48.012;10.030;2022-10-22T00:37:25;12.40;99.90
20094;DHT22;10206;48.012;10.030;2022-10-22T00:39:51;12.40;99.90
20094;DHT22;10206;48.012;10.030;2022-10-22T00:42:19;12.30;99.90
20094;DHT22;10206;48.012;10.030;2022-10-22T00:50:13;12.20;99.90
20094;DHT22;10206;48.012;10.030;2022-10-22T00:52:43;12.20;99.90
20094;DHT22;10206;48.012;10.030;2022-10-22T00:55:09;12.20;99.90
20094;DHT22;10206;48.012;10.030;2022-10-22T00:57:36;12.20;99.90
20094;DHT22;10206;48.012;10.030;2022-10-22T01:00:04;12.20;99.90
20094;DHT22;10206;48.012;10.030;2022-10-22T01:02:30;12.10;99.90
20094;DHT22;10206;48.012;10.030;2022-10-22T01:04:56;12.10;99.90
20094;DHT22;10206;48.012;10.030;2022-10-22T01:07:23;12.10;99.90
20094;DHT22;10206;48.012;10.030;2022-10-22T01:12:49;12.10;99.90
20094;DHT22;10206;48.012;10.030;2022-10-22T01:18:08;12.10;99.90
20094;DHT22;10206;48.012;10.030;2022-10-22T01:21:15;12.00;99.90
20094;DHT22;10206;48.012;10.030;2022-10-22T01:24:08;11.90;99.90
20094;DHT22;10206;48.012;10.030;2022-10-22T01:27:23;11.90;99.90
20094;DHT22;10206;48.012;10.030;2022-10-22T01:30:01;11.90;99.90
20094;DHT22;10206;48.012;10.030;2022-10-22T01:32:34;12.00;99.90
20094;DHT22;10206;48.012;10.030;2022-10-22T01:35:07;12.00;99.90
20094;DHT22;10206;48.012;10.030;2022-10-22T01:37:41;12.00;99.90
20094;DHT22;10206;48.012;10.030;2022-10-22T01:40:14;11.90;99.90
20094;DHT22;10206;48.012;10.030;2022-10-22T01:42:41;11.90;99.90
20094;DHT22;10206;48.012;10.030;2022-10-22T01:45:12;11.90;99.90
20094;DHT22;10206;48.012;10.030;2022-10-22T01:53:40;11.90;99.90
20094;DHT22;10206;48.012;10.030;2022-10-22T02:05:13;11.90;99.90
20094;DHT22;10206;48.012;10.030;2022-10-22T02:07:52;11.90;99.90
20094;DHT22;10206;48.012;10.030;2022-10-22T02:10:22;11.90;99.90
20094;DHT22;10206;48.012;10.030;2022-10-22T02:12:51;11.90;99.90
20094;DHT22;10206;48.012;10.030;2022-10-22T02:15:20;11.90;99.90
20094;DHT22;10206;48.012;10.030;2022-10-22T02:17:49;11.90;99.90
20094;DHT22;10206;48.012;10.030;2022-10-22T02:20:28;11.90;99.90
20094;DHT22;10206;48.012;10.030;2022-10-22T02:22:59;11.80;99.90
20094;DHT22;10206;48.012;10.030;2022-10-22T02:25:29;11.80;99.90
20094;DHT22;10206;48.012;10.030;2022-10-22T02:28:24;11.80;99.90
20094;DHT22;10206;48.012;10.030;2022-10-22T02:31:00;11.90;99.90
20094;DHT22;10206;48.012;10.030;2022-10-22T02:33:41;11.80;99.90
20094;DHT22;10206;48.012;10.030;2022-10-22T02:36:12;11.80;99.90
20094;DHT22;10206;48.012;10.030;2022-10-22T02:38:41;11.80;99.90
20094;DHT22;10206;48.012;10.030;2022-10-22T02:41:07;11.80;99.90
20094;DHT22;10206;48.012;10.030;2022-10-22T02:43:52;11.80;99.90
20094;DHT22;10206;48.012;10.030;2022-10-22T02:46:19;11.70;99.90
20094;DHT22;10206;48.012;10.030;2022-10-22T02:48:45;11.80;99.90
20094;DHT22;10206;48.012;10.030;2022-10-22T02:51:11;11.80;99.90
20094;DHT22;10206;48.012;10.030;2022-10-22T02:53:38;11.70;99.90
20094;DHT22;10206;48.012;10.030;2022-10-22T02:56:04;11.70;99.90
20094;DHT22;10206;48.012;10.030;2022-10-22T02:58:30;11.70;99.90
20094;DHT22;10206;48.012;10.030;2022-10-22T03:00:55;11.70;99.90
20094;DHT22;10206;48.012;10.030;2022-10-22T03:03:21;11.60;99.90
20094;DHT22;10206;48.012;10.030;2022-10-22T03:05:48;11.70;99.90
20094;DHT22;10206;48.012;10.030;2022-10-22T03:08:14;11.70;99.90
20094;DHT22;10206;48.012;10.030;2022-10-22T03:10:40;11.60;99.90
20094;DHT22;10206;48.012;10.030;2022-10-22T03:13:06;11.60;99.90
20094;DHT22;10206;48.012;10.030;2022-10-22T03:15:32;11.60;99.90
20094;DHT22;10206;48.012;10.030;2022-10-22T03:17:57;11.70;99.90
20094;DHT22;10206;48.012;10.030;2022-10-22T03:20:23;11.80;99.90
20094;DHT22;10206;48.012;10.030;2022-10-22T03:22:49;11.80;99.90
20094;DHT22;10206;48.012;10.030;2022-10-22T03:25:18;11.70;99.90
20094;DHT22;10206;48.012;10.030;2022-10-22T03:27:47;11.70;99.90
20094;DHT22;10206;48.012;10.030;2022-10-22T03:30:14;11.70;99.90
20094;DHT22;10206;48.012;10.030;2022-10-22T03:32:40;11.70;99.90
20094;DHT22;10206;48.012;10.030;2022-10-22T03:35:06;11.60;99.90
20094;DHT22;10206;48.012;10.030;2022-10-22T03:37:32;11.60;99.90
20094;DHT22;10206;48.012;10.030;2022-10-22T03:40:00;11.50;99.90
20094;DHT22;10206;48.012;10.030;2022-10-22T03:42:27;11.50;99.90
20094;DHT22;10206;48.012;10.030;2022-10-22T03:44:53;11.50;99.90
20094;DHT22;10206;48.012;10.030;2022-10-22T03:47:19;11.50;99.90
20094;DHT22;10206;48.012;10.030;2022-10-22T03:49:49;11.50;99.90
20094;DHT22;10206;48.012;10.030;2022-10-22T03:52:16;11.60;99.90
20094;DHT22;10206;48.012;10.030;2022-10-22T03:54:42;11.60;99.90
20094;DHT22;10206;48.012;10.030;2022-10-22T03:57:08;11.60;99.90
20094;DHT22;10206;48.012;10.030;2022-10-22T03:59:42;11.50;99.90
20094;DHT22;10206;48.012;10.030;2022-10-22T04:02:10;11.50;99.90
20094;DHT22;10206;48.012;10.030;2022-10-22T04:04:37;11.50;99.90
20094;DHT22;10206;48.012;10.030;2022-10-22T04:07:04;11.50;99.90
20094;DHT22;10206;48.012;10.030;2022-10-22T04:09:32;11.60;99.90
20094;DHT22;10206;48.012;10.030;2022-10-22T04:11:58;11.50;99.90
20094;DHT22;10206;48.012;10.030;2022-10-22T04:14:25;11.50;99.90
20094;DHT22;10206;48.012;10.030;2022-10-22T04:16:51;11.50;99.90
20094;DHT22;10206;48.012;10.030;2022-10-22T04:19:16;11.50;99.90
20094;DHT22;10206;48.012;10.030;2022-10-22T04:21:43;11.50;99.90
20094;DHT22;10206;48.012;10.030;2022-10-22T04:24:09;11.40;99.90
20094;DHT22;10206;48.012;10.030;2022-10-22T04:26:35;11.40;99.90
20094;DHT22;10206;48.012;10.030;2022-10-22T04:29:01;11.40;99.90
20094;DHT22;10206;48.012;10.030;2022-10-22T04:31:27;11.40;99.90
20094;DHT22;10206;48.012;10.030;2022-10-22T04:33:57;11.40;99.90
20094;DHT22;10206;48.012;10.030;2022-10-22T04:36:24;11.50;99.90
20094;DHT22;10206;48.012;10.030;2022-10-22T04:38:54;11.50;99.90
20094;DHT22;10206;48.012;10.030;2022-10-22T04:41:25;11.40;99.90
20094;DHT22;10206;48.012;10.030;2022-10-22T04:43:54;11.40;99.90
20094;DHT22;10206;48.012;10.030;2022-10-22T04:46:20;11.40;99.90
20094;DHT22;10206;48.012;10.030;2022-10-22T04:48:49;11.40;99.90
20094;DHT22;10206;48.012;10.030;2022-10-22T04:51:18;11.40;99.90
20094;DHT22;10206;48.012;10.030;2022-10-22T04:53:45;11.40;99.90
20094;DHT22;10206;48.012;10.030;2022-10-22T04:56:15;11.40;99.90
20094;DHT22;10206;48.012;10.030;2022-10-22T04:58:50;11.40;99.90
20094;DHT22;10206;48.012;10.030;2022-10-22T05:01:20;11.40;99.90
20094;DHT22;10206;48.012;10.030;2022-10-22T05:03:52;11.40;99.90
20094;DHT22;10206;48.012;10.030;2022-10-22T05:06:20;11.40;99.90
20094;DHT22;10206;48.012;10.030;2022-10-22T05:08:51;11.40;99.90
20094;DHT22;10206;48.012;10.030;2022-10-22T05:11:20;11.40;99.90
20094;DHT22;10206;48.012;10.030;2022-10-22T05:13:47;11.40;99.90
20094;DHT22;10206;48.012;10.030;2022-10-22T05:16:14;11.30;99.90
20094;DHT22;10206;48.012;10.030;2022-10-22T05:18:42;11.40;99.90
20094;DHT22;10206;48.012;10.030;2022-10-22T05:21:12;11.40;99.90
20094;DHT22;10206;48.012;10.030;2022-10-22T05:23:39;11.40;99.90
20094;DHT22;10206;48.012;10.030;2022-10-22T05:26:07;11.40;99.90
20094;DHT22;10206;48.012;10.030;2022-10-22T05:28:35;11.60;99.90
20094;DHT22;10206;48.012;10.030;2022-10-22T05:31:01;11.60;99.90
20094;DHT22;10206;48.012;10.030;2022-10-22T05:33:30;11.60;99.90
20094;DHT22;10206;48.012;10.030;2022-10-22T05:35:58;11.60;99.90
20094;DHT22;10206;48.012;10.030;2022-10-22T05:38:24;11.60;99.90
20094;DHT22;10206;48.012;10.030;2022-10-22T05:41:19;11.60;99.90
20094;DHT22;10206;48.012;10.030;2022-10-22T05:43:46;11.60;99.90
20094;DHT22;10206;48.012;10.030;2022-10-22T05:46:16;11.60;99.90
20094;DHT22;10206;48.012;10.030;2022-10-22T05:48:43;11.60;99.90
20094;DHT22;10206;48.012;10.030;2022-10-22T05:51:12;11.60;99.90
20094;DHT22;10206;48.012;10.030;2022-10-22T05:53:40;11.60;99.90
20094;DHT22;10206;48.012;10.030;2022-10-22T05:56:13;11.60;99.90
20094;DHT22;10206;48.012;10.030;2022-10-22T05:58:41;11.60;99.90
20094;DHT22;10206;48.012;10.030;2022-10-22T06:01:14;11.60;99.90
20094;DHT22;10206;48.012;10.030;2022-10-22T06:03:43;11.60;99.90
20094;DHT22;10206;48.012;10.030;2022-10-22T06:09:06;11.60;99.90
20094;DHT22;10206;48.012;10.030;2022-10-22T06:11:38;11.60;99.90
20094;DHT22;10206;48.012;10.030;2022-10-22T06:14:03;11.70;99.90
20094;DHT22;10206;48.012;10.030;2022-10-22T06:16:30;11.70;99.90
20094;DHT22;10206;48.012;10.030;2022-10-22T06:18:58;11.70;99.90
20094;DHT22;10206;48.012;10.030;2022-10-22T06:21:27;11.80;99.90
20094;DHT22;10206;48.012;10.030;2022-10-22T06:23:55;11.80;99.90
20094;DHT22;10206;48.012;10.030;2022-10-22T06:26:22;11.90;99.90
20094;DHT22;10206;48.012;10.030;2022-10-22T06:28:48;11.90;99.90
20094;DHT22;10206;48.012;10.030;2022-10-22T06:31:14;11.90;99.90
20094;DHT22;10206;48.012;10.030;2022-10-22T06:33:40;12.00;99.90
20094;DHT22;10206;48.012;10.030;2022-10-22T06:36:14;12.00;99.90
20094;DHT22;10206;48.012;10.030;2022-10-22T06:38:42;12.00;99.90
20094;DHT22;10206;48.012;10.030;2022-10-22T06:41:14;12.10;99.90
20094;DHT22;10206;48.012;10.030;2022-10-22T06:43:41;12.20;99.90
20094;DHT22;10206;48.012;10.030;2022-10-22T06:46:13;12.30;99.90
20094;DHT22;10206;48.012;10.030;2022-10-22T06:48:40;12.30;99.90
20094;DHT22;10206;48.012;10.030;2022-10-22T06:51:09;12.40;99.90
20094;DHT22;10206;48.012;10.030;2022-10-22T06:53:37;12.40;99.90
20094;DHT22;10206;48.012;10.030;2022-10-22T06:56:11;12.40;99.90
20094;DHT22;10206;48.012;10.030;2022-10-22T06:58:39;12.40;99.90
20094;DHT22;10206;48.012;10.030;2022-10-22T07:01:07;12.30;99.90
20094;DHT22;10206;48.012;10.030;2022-10-22T07:03:35;12.20;99.90
20094;DHT22;10206;48.012;10.030;2022-10-22T07:06:03;12.20;99.90
20094;DHT22;10206;48.012;10.030;2022-10-22T07:08:32;12.10;99.90
20094;DHT22;10206;48.012;10.030;2022-10-22T07:11:26;12.20;99.90
20094;DHT22;10206;48.012;10.030;2022-10-22T07:13:55;12.20;99.90
20094;DHT22;10206;48.012;10.030;2022-10-22T07:16:22;12.20;99.90
20094;DHT22;10206;48.012;10.030;2022-10-22T07:18:49;12.30;99.90
20094;DHT22;10206;48.012;10.030;2022-10-22T07:21:17;12.30;99.90
20094;DHT22;10206;48.012;10.030;2022-10-22T07:23:44;12.40;99.90
20094;DHT22;10206;48.012;10.030;2022-10-22T07:26:13;12.40;99.90
20094;DHT22;10206;48.012;10.030;2022-10-22T07:28:40;12.50;99.90
20094;DHT22;10206;48.012;10.030;2022-10-22T07:31:08;12.50;99.90
20094;DHT22;10206;48.012;10.030;2022-10-22T07:33:35;12.60;99.90
20094;DHT22;10206;48.012;10.030;2022-10-22T07:36:05;12.60;99.90
20094;DHT22;10206;48.012;10.030;2022-10-22T07:38:33;12.70;99.90
20094;DHT22;10206;48.012;10.030;2022-10-22T07:40:59;12.80;99.90
20094;DHT22;10206;48.012;10.030;2022-10-22T07:43:25;12.90;99.90
20094;DHT22;10206;48.012;10.030;2022-10-22T07:45:51;13.00;99.90
20094;DHT22;10206;48.012;10.030;2022-10-22T07:48:17;13.00;99.90
20094;DHT22;10206;48.012;10.030;2022-10-22T07:50:43;13.10;99.90
20094;DHT22;10206;48.012;10.030;2022-10-22T07:53:09;13.10;99.90
20094;DHT22;10206;48.012;10.030;2022-10-22T07:55:35;13.20;99.90
20094;DHT22;10206;48.012;10.030;2022-10-22T07:58:01;13.20;99.90
20094;DHT22;10206;48.012;10.030;2022-10-22T08:00:26;13.30;99.90
20094;DHT22;10206;48.012;10.030;2022-10-22T08:02:52;13.40;99.90
20094;DHT22;10206;48.012;10.030;2022-10-22T08:05:18;13.50;99.90
20094;DHT22;10206;48.012;10.030;2022-10-22T08:07:44;13.40;99.90
20094;DHT22;10206;48.012;10.030;2022-10-22T08:10:11;13.50;99.90
20094;DHT22;10206;48.012;10.030;2022-10-22T08:12:37;13.60;99.90
20094;DHT22;10206;48.012;10.030;2022-10-22T08:15:03;13.70;99.90
20094;DHT22;10206;48.012;10.030;2022-10-22T08:17:30;13.70;99.90
20094;DHT22;10206;48.012;10.030;2022-10-22T08:19:55;13.80;99.90
20094;DHT22;10206;48.012;10.030;2022-10-22T08:22:21;13.80;99.90
20094;DHT22;10206;48.012;10.030;2022-10-22T08:24:47;13.80;99.90
20094;DHT22;10206;48.012;10.030;2022-10-22T08:27:13;13.90;99.90
20094;DHT22;10206;48.012;10.030;2022-10-22T08:29:39;13.80;99.90
20094;DHT22;10206;48.012;10.030;2022-10-22T08:32:05;13.70;99.90
20094;DHT22;10206;48.012;10.030;2022-10-22T08:34:30;13.60;99.90
20094;DHT22;10206;48.012;10.030;2022-10-22T08:36:56;13.50;99.90
20094;DHT22;10206;48.012;10.030;2022-10-22T08:39:22;13.50;99.90
20094;DHT22;10206;48.012;10.030;2022-10-22T08:45:31;13.20;99.90
20094;DHT22;10206;48.012;10.030;2022-10-22T08:48:29;13.20;99.90
20094;DHT22;10206;48.012;10.030;2022-10-22T08:51:16;13.10;99.90
20094;DHT22;10206;48.012;10.030;2022-10-22T08:53:56;13.20;99.90
20094;DHT22;10206;48.012;10.030;2022-10-22T08:56:34;13.30;99.90
20094;DHT22;10206;48.012;10.030;2022-10-22T08:59:16;13.30;99.90
20094;DHT22;10206;48.012;10.030;2022-10-22T09:01:50;13.40;99.90
20094;DHT22;10206;48.012;10.030;2022-10-22T09:04:25;13.50;99.90
20094;DHT22;10206;48.012;10.030;2022-10-22T09:06:57;13.60;99.90
20094;DHT22;10206;48.012;10.030;2022-10-22T09:09:28;13.70;99.90
20094;DHT22;10206;48.012;10.030;2022-10-22T09:11:59;13.80;99.90
20094;DHT22;10206;48.012;10.030;2022-10-22T09:14:26;14.10;99.90
20094;DHT22;10206;48.012;10.030;2022-10-22T09:26:03;14.90;99.90
20094;DHT22;10206;48.012;10.030;2022-10-22T09:28:37;15.10;99.90
20094;DHT22;10206;48.012;10.030;2022-10-22T09:31:13;15.30;99.90
20094;DHT22;10206;48.012;10.030;2022-10-22T09:33:41;15.50;99.90
20094;DHT22;10206;48.012;10.030;2022-10-22T09:36:14;15.70;99.90
20094;DHT22;10206;48.012;10.030;2022-10-22T09:38:47;16.00;99.90
20094;DHT22;10206;48.012;10.030;2022-10-22T09:41:15;16.10;99.90
20094;DHT22;10206;48.012;10.030;2022-10-22T09:43:46;16.10;99.90
20094;DHT22;10206;48.012;10.030;2022-10-22T09:46:26;16.20;99.90
20094;DHT22;10206;48.012;10.030;2022-10-22T09:57:09;16.40;99.90
20094;DHT22;10206;48.012;10.030;2022-10-22T09:59:43;16.90;99.90
20094;DHT22;10206;48.012;10.030;2022-10-22T10:02:14;16.70;99.90
20094;DHT22;10206;48.012;10.030;2022-10-22T10:04:54;16.80;99.90
20094;DHT22;10206;48.012;10.030;2022-10-22T10:07:24;17.00;99.90
20094;DHT22;10206;48.012;10.030;2022-10-22T10:09:52;16.70;99.90
20094;DHT22;10206;48.012;10.030;2022-10-22T10:15:39;17.50;99.90
20094;DHT22;10206;48.012;10.030;2022-10-22T10:27:17;18.40;99.90
20094;DHT22;10206;48.012;10.030;2022-10-22T10:30:10;18.10;99.90
20094;DHT22;10206;48.012;10.030;2022-10-22T10:38:41;16.50;99.90
20094;DHT22;10206;48.012;10.030;2022-10-22T10:41:41;16.40;99.90
20094;DHT22;10206;48.012;10.030;2022-10-22T10:44:35;16.50;99.90
20094;DHT22;10206;48.012;10.030;2022-10-22T10:47:33;16.70;99.90
20094;DHT22;10206;48.012;10.030;2022-10-22T10:50:15;16.80;99.90
20094;DHT22;10206;48.012;10.030;2022-10-22T11:07:45;17.60;99.90
20094;DHT22;10206;48.012;10.030;2022-10-22T11:16:28;18.00;99.90
20094;DHT22;10206;48.012;10.030;2022-10-22T11:19:07;18.20;99.90
20094;DHT22;10206;48.012;10.030;2022-10-22T11:21:52;18.30;99.90
20094;DHT22;10206;48.012;10.030;2022-10-22T11:27:27;18.40;99.90
20094;DHT22;10206;48.012;10.030;2022-10-22T11:30:04;18.50;99.90
20094;DHT22;10206;48.012;10.030;2022-10-22T11:32:57;18.60;99.90
20094;DHT22;10206;48.012;10.030;2022-10-22T11:35:33;18.60;99.90
20094;DHT22;10206;48.012;10.030;2022-10-22T11:38:02;18.80;99.90
20094;DHT22;10206;48.012;10.030;2022-10-22T11:40:39;18.90;99.90
20094;DHT22;10206;48.012;10.030;2022-10-22T11:43:31;18.90;99.90
20094;DHT22;10206;48.012;10.030;2022-10-22T11:46:24;19.00;99.90
20094;DHT22;10206;48.012;10.030;2022-10-22T11:49:14;19.20;99.90
20094;DHT22;10206;48.012;10.030;2022-10-22T11:51:44;18.90;99.90
20094;DHT22;10206;48.012;10.030;2022-10-22T11:57:24;19.00;99.90
20094;DHT22;10206;48.012;10.030;2022-10-22T11:59:56;19.00;99.90
20094;DHT22;10206;48.012;10.030;2022-10-22T12:02:39;18.90;99.90
20094;DHT22;10206;48.012;10.030;2022-10-22T12:07:54;19.20;99.90
20094;DHT22;10206;48.012;10.030;2022-10-22T12:10:26;19.30;99.90
20094;DHT22;10206;48.012;10.030;2022-10-22T12:13:09;19.40;99.90
20094;DHT22;10206;48.012;10.030;2022-10-22T12:15:50;19.60;99.90
20094;DHT22;10206;48.012;10.030;2022-10-22T12:18:23;19.60;99.90
20094;DHT22;10206;48.012;10.030;2022-10-22T12:20:52;19.60;99.90
20094;DHT22;10206;48.012;10.030;2022-10-22T12:23:23;19.50;99.90
20094;DHT22;10206;48.012;10.030;2022-10-22T12:25:53;18.90;99.90
20094;DHT22;10206;48.012;10.030;2022-10-22T12:28:19;19.10;99.90
20094;DHT22;10206;48.012;10.030;2022-10-22T12:30:44;19.20;99.90
20094;DHT22;10206;48.012;10.030;2022-10-22T12:33:22;19.40;99.90
20094;DHT22;10206;48.012;10.030;2022-10-22T12:35:49;19.90;99.90
20094;DHT22;10206;48.012;10.030;2022-10-22T12:38:23;20.20;99.90
20094;DHT22;10206;48.012;10.030;2022-10-22T12:40:53;20.30;99.90
20094;DHT22;10206;48.012;10.030;2022-10-22T12:43:29;19.70;99.90
20094;DHT22;10206;48.012;10.030;2022-10-22T12:45:56;19.20;99.90
20094;DHT22;10206;48.012;10.030;2022-10-22T12:48:29;18.60;99.90
20094;DHT22;10206;48.012;10.030;2022-10-22T12:50:59;18.20;99.90
20094;DHT22;10206;48.012;10.030;2022-10-22T12:53:33;17.80;99.90
20094;DHT22;10206;48.012;10.030;2022-10-22T12:56:09;17.60;99.90
20094;DHT22;10206;48.012;10.030;2022-10-22T12:58:43;17.60;99.90
20094;DHT22;10206;48.012;10.030;2022-10-22T13:01:14;17.50;99.90
20094;DHT22;10206;48.012;10.030;2022-10-22T13:03:46;17.40;99.90
20094;DHT22;10206;48.012;10.030;2022-10-22T13:08:44;17.60;99.90
20094;DHT22;10206;48.012;10.030;2022-10-22T13:11:20;17.60;99.90
20094;DHT22;10206;48.012;10.030;2022-10-22T13:13:45;17.70;99.90
20094;DHT22;10206;48.012;10.030;2022-10-22T13:16:21;17.70;99.90
20094;DHT22;10206;48.012;10.030;2022-10-22T13:18:51;17.50;99.90
20094;DHT22;10206;48.012;10.030;2022-10-22T13:21:40;17.50;99.90
20094;DHT22;10206;48.012;10.030;2022-10-22T13:24:23;17.40;99.90
20094;DHT22;10206;48.012;10.030;2022-10-22T13:26:51;17.50;99.90
20094;DHT22;10206;48.012;10.030;2022-10-22T13:29:20;17.50;99.90
20094;DHT22;10206;48.012;10.030;2022-10-22T13:31:50;17.30;99.90
20094;DHT22;10206;48.012;10.030;2022-10-22T13:34:19;17.20;99.90
20094;DHT22;10206;48.012;10.030;2022-10-22T13:36:48;17.20;99.90
20094;DHT22;10206;48.012;10.030;2022-10-22T13:39:21;17.10;99.90
20094;DHT22;10206;48.012;10.030;2022-10-22T13:41:49;17.10;99.90
20094;DHT22;10206;48.012;10.030;2022-10-22T13:44:16;17.10;99.90
20094;DHT22;10206;48.012;10.030;2022-10-22T13:46:43;17.10;99.90
20094;DHT22;10206;48.012;10.030;2022-10-22T13:49:17;17.00;99.90
20094;DHT22;10206;48.012;10.030;2022-10-22T13:51:46;17.00;99.90
20094;DHT22;10206;48.012;10.030;2022-10-22T13:54:21;16.90;99.90
20094;DHT22;10206;48.012;10.030;2022-10-22T13:56:48;16.70;99.90
20094;DHT22;10206;48.012;10.030;2022-10-22T13:59:14;16.70;99.90
20094;DHT22;10206;48.012;10.030;2022-10-22T14:01:41;16.60;99.90
20094;DHT22;10206;48.012;10.030;2022-10-22T14:04:10;16.50;99.90
20094;DHT22;10206;48.012;10.030;2022-10-22T14:06:38;16.40;99.90
20094;DHT22;10206;48.012;10.030;2022-10-22T14:09:06;16.40;99.90
20094;DHT22;10206;48.012;10.030;2022-10-22T14:11:35;16.30;99.90
20094;DHT22;10206;48.012;10.030;2022-10-22T14:14:01;16.10;99.90
20094;DHT22;10206;48.012;10.030;2022-10-22T14:16:33;16.10;99.90
20094;DHT22;10206;48.012;10.030;2022-10-22T14:19:00;16.10;99.90
20094;DHT22;10206;48.012;10.030;2022-10-22T14:21:30;16.10;99.90
20094;DHT22;10206;48.012;10.030;2022-10-22T14:24:00;16.10;99.90
20094;DHT22;10206;48.012;10.030;2022-10-22T14:26:28;15.90;99.90
20094;DHT22;10206;48.012;10.030;2022-10-22T14:28:57;15.80;99.90
20094;DHT22;10206;48.012;10.030;2022-10-22T14:31:24;15.80;99.90
20094;DHT22;10206;48.012;10.030;2022-10-22T14:33:50;15.70;99.90
20094;DHT22;10206;48.012;10.030;2022-10-22T14:36:17;15.60;99.90
20094;DHT22;10206;48.012;10.030;2022-10-22T14:38:46;15.50;99.90
20094;DHT22;10206;48.012;10.030;2022-10-22T14:41:26;15.40;99.90
20094;DHT22;10206;48.012;10.030;2022-10-22T14:43:53;15.30;99.90
20094;DHT22;10206;48.012;10.030;2022-10-22T14:46:23;15.20;99.90
20094;DHT22;10206;48.012;10.030;2022-10-22T14:48:49;15.20;99.90
20094;DHT22;10206;48.012;10.030;2022-10-22T14:51:18;15.20;99.90
20094;DHT22;10206;48.012;10.030;2022-10-22T14:53:46;15.00;99.90
20094;DHT22;10206;48.012;10.030;2022-10-22T14:56:13;14.90;99.90
20094;DHT22;10206;48.012;10.030;2022-10-22T14:58:41;14.80;99.90
20094;DHT22;10206;48.012;10.030;2022-10-22T15:01:07;14.70;99.90
20094;DHT22;10206;48.012;10.030;2022-10-22T15:03:34;14.60;99.90
20094;DHT22;10206;48.012;10.030;2022-10-22T15:06:00;14.60;99.90
20094;DHT22;10206;48.012;10.030;2022-10-22T15:08:26;14.60;99.90
20094;DHT22;10206;48.012;10.030;2022-10-22T15:11:07;14.40;99.90
20094;DHT22;10206;48.012;10.030;2022-10-22T15:13:35;14.30;99.90
20094;DHT22;10206;48.012;10.030;2022-10-22T15:16:04;14.20;99.90
20094;DHT22;10206;48.012;10.030;2022-10-22T15:18:31;14.20;99.90
20094;DHT22;10206;48.012;10.030;2022-10-22T15:21:06;14.00;99.90
20094;DHT22;10206;48.012;10.030;2022-10-22T15:23:37;13.90;99.90
20094;DHT22;10206;48.012;10.030;2022-10-22T15:26:09;13.80;99.90
20094;DHT22;10206;48.012;10.030;2022-10-22T15:28:36;13.80;99.90
20094;DHT22;10206;48.012;10.030;2022-10-22T15:31:04;13.70;99.90
20094;DHT22;10206;48.012;10.030;2022-10-22T15:33:30;13.60;99.90
20094;DHT22;10206;48.012;10.030;2022-10-22T15:35:56;13.50;99.90
20094;DHT22;10206;48.012;10.030;2022-10-22T15:38:31;13.40;99.90
20094;DHT22;10206;48.012;10.030;2022-10-22T15:41:04;13.40;99.90
20094;DHT22;10206;48.012;10.030;2022-10-22T15:43:31;13.30;99.90
20094;DHT22;10206;48.012;10.030;2022-10-22T15:46:15;13.30;99.90
20094;DHT22;10206;48.012;10.030;2022-10-22T15:48:43;13.20;99.90
20094;DHT22;10206;48.012;10.030;2022-10-22T15:51:14;13.20;99.90
20094;DHT22;10206;48.012;10.030;2022-10-22T15:53:42;13.10;99.90
20094;DHT22;10206;48.012;10.030;2022-10-22T15:56:09;13.00;99.90
20094;DHT22;10206;48.012;10.030;2022-10-22T15:58:38;13.00;99.90
20094;DHT22;10206;48.012;10.030;2022-10-22T16:01:10;12.90;99.90
20094;DHT22;10206;48.012;10.030;2022-10-22T16:03:37;12.80;99.90
20094;DHT22;10206;48.012;10.030;2022-10-22T16:06:04;12.80;99.90
20094;DHT22;10206;48.012;10.030;2022-10-22T16:08:31;12.70;99.90
20094;DHT22;10206;48.012;10.030;2022-10-22T16:10:57;12.60;99.90
20094;DHT22;10206;48.012;10.030;2022-10-22T16:13:23;12.50;99.90
20094;DHT22;10206;48.012;10.030;2022-10-22T16:15:51;12.40;99.90
20094;DHT22;10206;48.012;10.030;2022-10-22T16:18:18;12.30;99.90
20094;DHT22;10206;48.012;10.030;2022-10-22T16:20:45;12.20;99.90
20094;DHT22;10206;48.012;10.030;2022-10-22T16:23:12;12.10;99.90
20094;DHT22;10206;48.012;10.030;2022-10-22T16:25:42;12.10;99.90
20094;DHT22;10206;48.012;10.030;2022-10-22T16:28:09;12.00;99.90
20094;DHT22;10206;48.012;10.030;2022-10-22T16:30:37;11.90;99.90
20094;DHT22;10206;48.012;10.030;2022-10-22T16:33:05;11.90;99.90
20094;DHT22;10206;48.012;10.030;2022-10-22T16:35:32;11.80;99.90
20094;DHT22;10206;48.012;10.030;2022-10-22T16:37:58;11.70;99.90
20094;DHT22;10206;48.012;10.030;2022-10-22T16:40:24;11.70;99.90
20094;DHT22;10206;48.012;10.030;2022-10-22T16:42:50;11.60;99.90
20094;DHT22;10206;48.012;10.030;2022-10-22T16:45:16;11.50;99.90
20094;DHT22;10206;48.012;10.030;2022-10-22T16:47:42;11.40;99.90
20094;DHT22;10206;48.012;10.030;2022-10-22T16:50:11;11.40;99.90
20094;DHT22;10206;48.012;10.030;2022-10-22T16:52:37;11.30;99.90
20094;DHT22;10206;48.012;10.030;2022-10-22T16:55:03;11.30;99.90
20094;DHT22;10206;48.012;10.030;2022-10-22T16:57:29;11.20;99.90
20094;DHT22;10206;48.012;10.030;2022-10-22T16:59:56;11.20;99.90
20094;DHT22;10206;48.012;10.030;2022-10-22T17:02:22;11.10;99.90
20094;DHT22;10206;48.012;10.030;2022-10-22T17:04:48;11.10;99.90
20094;DHT22;10206;48.012;10.030;2022-10-22T17:07:13;11.00;99.90
20094;DHT22;10206;48.012;10.030;2022-10-22T17:09:39;11.00;99.90
20094;DHT22;10206;48.012;10.030;2022-10-22T17:12:05;10.90;99.90
20094;DHT22;10206;48.012;10.030;2022-10-22T17:14:31;10.90;99.90